Time;durP1;ratioP1;P1;durP2;ratioP2;P2;SDS_P1;SDS_P2;PMS_P1;PMS_P2;Temp;Humidity;BMP_temperature;BMP_pressure;BME280_temperature;BME280_humidity;BME280_pressure;Samples;Min_cycle;Max_cycle;Signal;HPM_P1;HPM_P2
2022/03/21 10:50:57;;;;;;;25.52;8.32;;;;;;;28.42;36.50;102766.94;5072140;28;20382;-63
2022/03/21 10:53:26;;;;;;;16.00;7.88;;;;;;;29.71;33.90;102769.81;5070765;28;20111;-64
2022/03/21 10:55:58;;;;;;;16.17;8.25;;;;;;;30.78;32.43;102762.28;5069443;28;20025;-63
2022/03/21 10:58:38;;;;;;;14.77;7.97;;;;;;;31.62;31.05;102758.44;5069319;28;20028;-63
2022/03/21 11:01:24;;;;;;;15.52;8.73;;;;;;;32.13;30.64;102757.50;5070503;28;20078;-63
2022/03/21 11:03:52;;;;;;;15.70;8.45;;;;;;;32.53;29.36;102758.81;5070464;28;20034;-63
2022/03/21 11:06:18;;;;;;;15.10;8.77;;;;;;;32.80;29.82;102751.97;5070149;28;20112;-63
2022/03/21 11:08:50;;;;;;;16.02;8.52;;;;;;;33.04;28.36;102757.69;5070215;28;20112;-63
2022/03/21 11:11:15;;;;;;;17.38;9.50;;;;;;;33.25;28.40;102755.31;5070189;28;20040;-64
2022/03/21 11:13:41;;;;;;;17.70;8.25;;;;;;;33.47;27.73;102755.69;5070213;28;20032;-63
2022/03/21 11:16:07;;;;;;;14.07;7.70;;;;;;;33.67;27.94;102745.16;5070078;28;20078;-63
2022/03/21 11:18:32;;;;;;;15.32;8.27;;;;;;;33.89;27.11;102746.31;5070210;28;20032;-61
2022/03/21 11:20:59;;;;;;;13.95;8.65;;;;;;;33.97;26.44;102746.00;5069876;28;20025;-61
2022/03/21 11:23:25;;;;;;;14.00;8.05;;;;;;;34.02;26.44;102742.50;5070014;28;20467;-62
2022/03/21 11:26:07;;;;;;;12.65;8.00;;;;;;;34.13;26.23;102738.91;5070173;28;20116;-61
2022/03/21 11:28:49;;;;;;;13.73;8.27;;;;;;;34.22;27.06;102745.84;5069882;28;20386;-61
2022/03/21 11:31:37;;;;;;;12.63;7.50;;;;;;;34.30;25.98;102744.63;5069984;28;20067;-62
2022/03/21 11:34:20;;;;;;;11.85;7.40;;;;;;;34.42;26.50;102732.41;5068614;28;20469;-62
2022/03/21 11:37:04;;;;;;;11.52;7.90;;;;;;;34.63;25.29;102722.63;5068527;28;20040;-61
2022/03/21 11:39:30;;;;;;;12.63;7.82;;;;;;;34.73;25.81;102722.03;5069935;28;20411;-61
2022/03/21 11:42:01;;;;;;;10.57;7.30;;;;;;;34.84;25.22;102727.56;5069861;28;20032;-61
2022/03/21 11:44:27;;;;;;;14.10;7.40;;;;;;;34.92;25.39;102729.13;5068469;28;20163;-61
2022/03/21 11:46:53;;;;;;;13.95;9.23;;;;;;;34.97;25.58;102729.25;5069721;28;20024;-61
2022/03/21 11:49:18;;;;;;;9.52;7.10;;;;;;;34.95;24.84;102723.91;5069051;28;20399;-61
2022/03/21 11:51:45;;;;;;;13.52;7.95;;;;;;;35.01;24.79;102725.72;5069290;28;20044;-61
2022/03/21 11:54:29;;;;;;;10.90;8.00;;;;;;;35.00;25.32;102729.63;5069353;28;20054;-62
2022/03/21 11:56:55;;;;;;;12.40;6.88;;;;;;;34.95;25.24;102715.53;5069157;28;20082;-62
2022/03/21 11:59:35;;;;;;;13.27;7.90;;;;;;;34.84;24.21;102723.94;5068088;28;20027;-62
2022/03/21 12:02:24;;;;;;;14.75;7.68;;;;;;;34.87;24.98;102720.69;5057531;28;20391;-62
2022/03/21 12:04:57;;;;;;;9.27;5.18;;;;;;;34.94;23.82;102716.66;5055805;28;20039;-61
2022/03/21 12:07:22;;;;;;;8.77;5.43;;;;;;;34.93;23.92;102723.31;5054842;28;20398;-62
2022/03/21 12:09:52;;;;;;;6.15;4.15;;;;;;;34.91;24.28;102703.22;5055758;28;20113;-61
2022/03/21 12:12:19;;;;;;;9.13;5.70;;;;;;;34.89;23.67;102715.69;5055962;28;20037;-61
2022/03/21 12:14:58;;;;;;;4.63;4.20;;;;;;;34.78;24.11;102703.50;5054575;28;20060;-61
2022/03/21 12:17:23;;;;;;;6.35;4.20;;;;;;;34.90;23.88;102704.28;5055781;28;20467;-61
2022/03/21 12:19:52;;;;;;;8.50;4.03;;;;;;;34.82;24.29;102701.03;5055805;28;20104;-62
2022/03/21 12:22:27;;;;;;;5.13;3.83;;;;;;;34.60;23.26;102700.84;5056017;28;20068;-62
2022/03/21 12:24:52;;;;;;;8.18;4.40;;;;;;;34.75;23.96;102703.13;5054361;28;20040;-63
2022/03/21 12:27:47;;;;;;;10.45;4.35;;;;;;;34.77;22.75;102699.00;5054435;28;20086;-64
2022/03/21 12:32:51;;;;;;;6.85;4.60;;;;;;;34.83;23.11;102695.25;5055336;28;20052;-62
2022/03/21 12:35:32;;;;;;;10.00;4.80;;;;;;;34.86;23.58;102691.97;5055379;28;20478;-62
2022/03/21 12:38:05;;;;;;;10.65;5.43;;;;;;;34.86;22.93;102693.91;5055524;28;20033;-62
2022/03/21 12:40:35;;;;;;;5.93;4.40;;;;;;;34.86;22.84;102699.47;5053940;28;20021;-62
2022/03/21 12:43:01;;;;;;;10.07;4.45;;;;;;;34.88;23.28;102689.78;5055385;28;20378;-62
2022/03/21 12:45:29;;;;;;;9.70;4.78;;;;;;;34.89;23.13;102688.69;5055328;28;20029;-62
2022/03/21 12:48:00;;;;;;;7.32;4.63;;;;;;;34.85;23.11;102695.84;5055108;28;20514;-62
2022/03/21 12:50:25;;;;;;;8.63;5.43;;;;;;;34.79;22.73;102696.81;5054148;28;20120;-62
2022/03/21 12:52:52;;;;;;;8.55;5.03;;;;;;;34.68;23.10;102689.31;5055032;28;20048;-62
2022/03/21 12:55:19;;;;;;;6.22;4.35;;;;;;;34.59;23.44;102687.16;5055075;28;20561;-62
2022/03/21 12:58:02;;;;;;;7.05;4.78;;;;;;;34.57;22.77;102690.19;5055000;28;20048;-62
2022/03/21 13:00:34;;;;;;;7.38;4.50;;;;;;;34.53;23.36;102686.19;5054968;28;20386;-62
2022/03/21 13:03:10;;;;;;;8.40;4.60;;;;;;;34.55;23.14;102692.34;5054898;28;20025;-62
2022/03/21 13:11:24;;;;;;;10.18;5.60;;;;;;;34.57;22.50;102684.59;5053645;28;20120;-62
2022/03/21 13:13:54;;;;;;;7.75;4.80;;;;;;;34.58;23.64;102674.31;5053697;28;20021;-62
2022/03/21 13:16:23;;;;;;;7.30;4.95;;;;;;;34.52;22.55;102673.34;5054438;28;20025;-62
2022/03/21 13:18:52;;;;;;;10.40;6.05;;;;;;;34.56;22.48;102682.91;5054538;28;20021;-62
2022/03/21 13:21:21;;;;;;;7.57;4.97;;;;;;;34.51;22.51;102674.41;5054462;28;20563;-62
2022/03/21 13:23:48;;;;;;;9.90;6.30;;;;;;;34.51;22.26;102674.41;5036931;28;20047;-62
2022/03/21 13:26:15;;;;;;;9.30;5.20;;;;;;;34.50;23.20;102672.75;5053241;28;20367;-62
2022/03/21 13:28:42;;;;;;;11.07;5.30;;;;;;;34.49;22.75;102676.59;5054497;28;20463;-62
2022/03/21 13:31:18;;;;;;;7.50;4.90;;;;;;;34.43;22.64;102666.44;5054352;28;20036;-62
2022/03/21 13:33:54;;;;;;;6.30;4.68;;;;;;;34.37;22.94;102678.53;5054424;28;20379;-62
2022/03/21 13:36:21;;;;;;;8.43;4.90;;;;;;;34.04;22.46;102672.69;5054200;28;20024;-62
2022/03/21 13:38:47;;;;;;;9.00;5.30;;;;;;;33.65;22.60;102675.03;5052920;28;20039;-62
2022/03/21 13:41:17;;;;;;;8.85;4.82;;;;;;;33.44;22.93;102675.56;5054158;28;20025;-62
2022/03/21 13:43:43;;;;;;;9.27;4.63;;;;;;;33.23;23.86;102676.91;5053936;28;20028;-62
2022/03/21 13:46:09;;;;;;;11.55;4.25;;;;;;;32.81;23.65;102675.06;5044367;28;20029;-62
2022/03/21 13:48:42;;;;;;;7.40;4.75;;;;;;;32.49;24.10;102666.00;5050350;28;20025;-62
2022/03/21 13:51:18;;;;;;;10.30;4.70;;;;;;;32.18;23.48;102666.09;5042487;28;20119;-63
2022/03/21 13:53:44;;;;;;;7.85;4.28;;;;;;;31.93;23.91;102679.09;5044142;28;20031;-62
2022/03/21 13:56:12;;;;;;;7.32;4.82;;;;;;;31.81;23.97;102667.88;5032845;28;20032;-62
2022/03/21 13:58:37;;;;;;;8.43;5.40;;;;;;;31.68;24.04;102666.06;5041261;28;20120;-62
2022/03/21 14:01:17;;;;;;;9.48;4.93;;;;;;;31.56;23.88;102667.84;5053754;28;20108;-62
2022/03/21 14:03:47;;;;;;;10.32;4.82;;;;;;;31.49;24.41;102663.44;5034759;28;20404;-62
2022/03/21 14:06:13;;;;;;;11.18;5.35;;;;;;;31.38;24.41;102667.72;5046164;28;20574;-62
2022/03/21 14:08:38;;;;;;;11.45;4.78;;;;;;;31.26;24.34;102660.34;5053595;28;20112;-62
2022/03/21 14:11:15;;;;;;;11.00;4.13;;;;;;;31.01;25.17;102657.47;5052523;28;20116;-62
2022/03/21 14:13:43;;;;;;;8.18;4.28;;;;;;;30.83;24.63;102660.91;5048463;28;20081;-63
2022/03/21 14:16:09;;;;;;;6.25;4.20;;;;;;;30.68;24.42;102654.81;5015756;28;20025;-64
2022/03/21 14:18:36;;;;;;;7.75;4.60;;;;;;;30.56;25.12;102651.88;5032266;28;20036;-64
2022/03/21 14:21:04;;;;;;;6.70;4.47;;;;;;;30.46;24.70;102645.91;5033398;28;20067;-64
2022/03/21 14:23:30;;;;;;;10.18;5.05;;;;;;;30.34;24.72;102650.41;5038703;28;20035;-64
2022/03/21 14:28:42;;;;;;;6.88;4.20;;;;;;;30.02;25.49;102638.28;5053274;28;20036;-64
2022/03/21 14:31:08;;;;;;;6.75;3.58;;;;;;;29.89;25.06;102651.28;5051929;28;20429;-64
2022/03/21 14:33:35;;;;;;;9.60;4.18;;;;;;;29.79;25.17;102639.72;5052008;28;20033;-64
2022/03/21 14:36:01;;;;;;;8.88;4.97;;;;;;;29.64;25.11;102644.63;5053397;28;20029;-64
2022/03/21 14:38:26;;;;;;;6.43;4.45;;;;;;;29.53;25.51;102639.72;5053142;28;20116;-64
2022/03/21 14:40:51;;;;;;;6.53;4.07;;;;;;;29.49;25.95;102639.28;5051930;28;20399;-64
2022/03/21 14:43:18;;;;;;;9.55;4.63;;;;;;;29.41;26.29;102643.09;5053228;28;20031;-64
2022/03/21 14:45:44;;;;;;;5.63;3.60;;;;;;;29.33;26.34;102643.31;5053143;28;20033;-64
2022/03/21 14:48:09;;;;;;;12.80;5.38;;;;;;;29.23;25.48;102640.06;5052949;28;20086;-64
2022/03/21 14:50:35;;;;;;;6.50;3.55;;;;;;;29.09;25.49;102632.78;5051482;28;20045;-64
2022/03/21 14:53:02;;;;;;;6.50;3.83;;;;;;;28.99;25.44;102628.72;5053002;28;20033;-64
2022/03/21 14:55:28;;;;;;;6.30;4.28;;;;;;;28.92;26.57;102637.00;5035148;28;20044;-63
2022/03/21 14:57:53;;;;;;;8.88;4.10;;;;;;;28.77;26.16;102622.47;5053063;28;20021;-63
2022/03/21 15:00:19;;;;;;;7.88;4.05;;;;;;;28.75;26.77;102630.97;5052881;28;20032;-64
2022/03/21 15:02:45;;;;;;;7.97;3.75;;;;;;;28.64;26.86;102630.69;5052854;28;20025;-64
2022/03/21 15:05:12;;;;;;;5.90;4.05;;;;;;;28.53;26.58;102631.25;5052929;28;20425;-64
2022/03/21 15:07:38;;;;;;;7.55;3.50;;;;;;;28.47;26.99;102634.81;5052781;28;20025;-64
2022/03/21 15:10:24;;;;;;;5.78;3.65;;;;;;;28.35;26.08;102628.16;5035069;28;20062;-64
2022/03/21 15:12:54;;;;;;;7.13;4.15;;;;;;;28.21;26.69;102627.22;5053162;28;20032;-64
2022/03/21 15:15:23;;;;;;;7.93;4.10;;;;;;;28.15;26.58;102620.59;5052795;28;20036;-64
2022/03/21 15:17:50;;;;;;;12.85;7.35;;;;;;;28.06;26.63;102623.69;5052838;28;20032;-63
2022/03/21 15:20:16;;;;;;;13.98;7.22;;;;;;;28.00;27.26;102627.25;5052578;28;20078;-63
2022/03/21 15:22:45;;;;;;;10.50;6.85;;;;;;;27.92;27.96;102617.19;5052688;28;20032;-63
2022/03/21 15:25:12;;;;;;;14.07;7.38;;;;;;;27.83;28.04;102615.66;5052689;28;20037;-63
2022/03/21 15:27:38;;;;;;;13.73;7.13;;;;;;;27.69;27.76;102619.34;5051767;28;20439;-64
2022/03/21 15:30:05;;;;;;;16.15;8.65;;;;;;;27.57;28.16;102613.53;5040918;28;20120;-64
2022/03/21 15:32:33;;;;;;;15.98;8.13;;;;;;;27.42;28.00;102614.63;5032696;28;20500;-64
2022/03/21 15:34:59;;;;;;;13.77;8.15;;;;;;;27.28;28.67;102618.25;5031360;28;20124;-64
2022/03/21 15:42:54;;;;;;;14.63;7.60;;;;;;;26.99;28.41;102624.72;5036427;28;20056;-64
2022/03/21 15:45:20;;;;;;;20.33;8.13;;;;;;;26.92;29.06;102629.25;5035214;28;20456;-63
2022/03/21 15:47:46;;;;;;;15.50;8.25;;;;;;;26.83;29.03;102630.44;5035035;28;20100;-64
2022/03/21 15:50:12;;;;;;;17.05;7.55;;;;;;;26.70;29.08;102622.81;5035930;28;20107;-63
2022/03/21 15:52:39;;;;;;;16.52;7.63;;;;;;;26.60;29.73;102619.53;5036088;28;20036;-64
2022/03/21 15:55:05;;;;;;;15.68;7.93;;;;;;;26.54;29.50;102620.28;5034827;28;20039;-64
2022/03/21 15:57:31;;;;;;;11.52;6.68;;;;;;;26.44;29.56;102620.56;5034890;28;20033;-64
2022/03/21 15:59:57;;;;;;;17.20;8.18;;;;;;;26.38;29.47;102621.31;5036058;28;20051;-63
2022/03/21 16:02:22;;;;;;;18.35;7.07;;;;;;;26.32;29.99;102622.09;5036093;28;20029;-64
2022/03/21 16:04:48;;;;;;;14.63;7.55;;;;;;;26.24;29.88;102618.56;5035938;28;20056;-63
2022/03/21 16:07:15;;;;;;;17.42;8.00;;;;;;;26.16;29.94;102621.41;5035812;28;20056;-63
2022/03/21 16:09:40;;;;;;;14.73;7.40;;;;;;;26.12;30.25;102614.53;5035692;28;20029;-63
2022/03/21 16:12:06;;;;;;;14.95;7.57;;;;;;;26.05;30.21;102608.94;5035701;28;20025;-63
2022/03/21 16:14:32;;;;;;;13.88;7.82;;;;;;;25.98;30.33;102614.34;5035685;28;20069;-63
2022/03/21 16:16:57;;;;;;;12.65;6.90;;;;;;;25.91;30.11;102616.13;5035644;28;20446;-63
2022/03/21 16:19:23;;;;;;;14.70;8.35;;;;;;;25.89;30.08;102626.44;5035793;28;20017;-63
2022/03/21 16:21:49;;;;;;;18.95;8.43;;;;;;;25.84;30.06;102623.41;5035675;28;20021;-64
2022/03/21 16:24:14;;;;;;;12.25;6.97;;;;;;;25.80;30.71;102616.56;5035695;28;20026;-64
2022/03/21 16:26:40;;;;;;;16.42;7.68;;;;;;;25.76;30.68;102620.72;5034376;28;20071;-63
2022/03/21 16:29:05;;;;;;;15.68;8.18;;;;;;;25.69;30.44;102619.75;5035558;28;20033;-64
2022/03/21 16:31:31;;;;;;;13.13;7.63;;;;;;;25.64;30.76;102624.94;5034283;28;20021;-64
2022/03/21 16:34:00;;;;;;;15.25;7.85;;;;;;;25.56;30.59;102615.91;5035540;28;20029;-64
2022/03/21 16:36:25;;;;;;;12.25;7.28;;;;;;;25.53;30.96;102625.38;5035469;28;20044;-64
2022/03/21 16:38:53;;;;;;;16.38;8.57;;;;;;;25.42;31.00;102618.41;5035244;28;20033;-64
2022/03/21 16:41:22;;;;;;;12.23;7.65;;;;;;;25.45;31.40;102617.19;5017767;28;20053;-64
2022/03/21 16:43:48;;;;;;;13.32;7.32;;;;;;;25.40;30.77;102631.44;5035239;28;20041;-64
2022/03/21 16:46:17;;;;;;;14.30;8.38;;;;;;;25.40;31.61;102628.69;5035416;28;20037;-64
2022/03/21 16:48:44;;;;;;;17.30;7.00;;;;;;;25.39;31.00;102637.13;5035074;28;20026;-64
2022/03/21 16:51:16;;;;;;;16.08;7.82;;;;;;;25.33;30.86;102621.38;5033913;28;20068;-64
2022/03/21 16:53:42;;;;;;;15.02;7.85;;;;;;;25.31;30.93;102626.19;5035411;28;20064;-64
2022/03/21 16:56:11;;;;;;;13.55;7.97;;;;;;;25.26;31.49;102625.91;5035074;28;20525;-63
2022/03/21 16:58:38;;;;;;;19.50;8.32;;;;;;;25.20;30.97;102623.88;5035328;28;20049;-63
2022/03/21 17:01:04;;;;;;;17.98;7.82;;;;;;;25.14;31.36;102627.34;5034987;28;20022;-63
2022/03/21 17:03:30;;;;;;;14.85;7.50;;;;;;;25.11;31.61;102624.94;5033766;28;20029;-63
2022/03/21 17:05:56;;;;;;;15.90;6.88;;;;;;;25.07;31.72;102623.63;5033736;28;20029;-63
2022/03/21 17:08:23;;;;;;;16.70;7.57;;;;;;;25.03;31.43;102630.50;5034842;28;20029;-63
2022/03/21 17:10:50;;;;;;;16.70;7.75;;;;;;;25.02;31.70;102629.63;5034659;28;20017;-64
2022/03/21 17:13:16;;;;;;;13.85;7.32;;;;;;;25.00;31.35;102633.59;5034761;28;20346;-64
2022/03/21 17:15:43;;;;;;;15.50;6.72;;;;;;;24.97;31.60;102633.94;5034757;28;20057;-64
2022/03/21 17:23:56;;;;;;;16.60;6.78;;;;;;;24.83;31.68;102633.69;4998235;28;20038;-64
2022/03/21 17:26:23;;;;;;;13.93;6.63;;;;;;;24.78;31.83;102636.06;5023380;28;20076;-64
2022/03/21 17:28:50;;;;;;;13.40;7.47;;;;;;;24.76;31.91;102637.28;5032241;28;20068;-64
2022/03/21 17:31:17;;;;;;;14.07;6.85;;;;;;;24.72;32.02;102639.53;5032452;28;20545;-63
2022/03/21 17:33:44;;;;;;;15.73;7.75;;;;;;;24.68;32.70;102637.31;5032382;28;20526;-63
2022/03/21 17:36:11;;;;;;;11.90;6.75;;;;;;;24.62;31.90;102638.03;5031890;28;20052;-64
2022/03/21 17:38:40;;;;;;;14.45;6.65;;;;;;;24.59;31.93;102639.22;5032358;28;20018;-63
2022/03/21 17:41:08;;;;;;;13.48;8.07;;;;;;;24.54;32.07;102649.03;5032231;28;20021;-64
2022/03/21 17:43:34;;;;;;;19.58;7.55;;;;;;;24.50;32.13;102648.50;5032355;28;20037;-64
2022/03/21 17:46:02;;;;;;;13.68;6.93;;;;;;;24.48;32.61;102655.19;5032246;28;20025;-64
2022/03/21 17:48:29;;;;;;;16.70;7.93;;;;;;;24.40;32.68;102641.53;5031573;28;20100;-64
2022/03/21 17:50:56;;;;;;;15.25;7.85;;;;;;;24.40;32.15;102653.31;5032720;28;20046;-63
2022/03/21 17:53:26;;;;;;;18.73;8.90;;;;;;;24.36;32.83;102651.09;5034026;28;20063;-63
2022/03/21 17:55:55;;;;;;;16.20;8.57;;;;;;;24.31;32.27;102655.25;5034031;28;20029;-63
2022/03/21 17:58:21;;;;;;;17.23;8.07;;;;;;;24.27;33.04;102653.88;5033851;28;20026;-64
2022/03/21 18:00:48;;;;;;;18.50;7.55;;;;;;;24.25;32.76;102655.06;5033938;28;20476;-64
2022/03/21 18:03:14;;;;;;;16.45;7.25;;;;;;;24.22;32.70;102653.53;5033937;28;20109;-64
2022/03/21 18:05:44;;;;;;;20.52;8.23;;;;;;;24.17;32.31;102657.84;5033792;28;20026;-64
2022/03/21 18:08:14;;;;;;;14.32;8.35;;;;;;;24.12;32.90;102658.34;5033743;28;20416;-64
2022/03/21 18:10:40;;;;;;;19.48;7.60;;;;;;;24.08;32.88;102656.94;5033697;28;20080;-63
2022/03/21 18:13:07;;;;;;;14.70;7.95;;;;;;;23.98;32.60;102647.22;5032366;28;20037;-63
2022/03/21 18:15:33;;;;;;;16.48;7.55;;;;;;;23.98;32.45;102660.91;5033158;28;20033;-63
2022/03/21 18:17:59;;;;;;;15.13;7.07;;;;;;;23.94;33.11;102670.47;5032222;28;20484;-63
2022/03/21 18:20:37;;;;;;;18.20;8.48;;;;;;;23.88;32.53;102668.41;5033371;28;20415;-63
2022/03/21 18:23:03;;;;;;;18.75;8.23;;;;;;;23.82;33.02;102669.97;5033439;28;20049;-63
2022/03/21 18:25:29;;;;;;;13.05;7.43;;;;;;;23.77;32.63;102672.34;5033561;28;20459;-63
2022/03/21 18:27:55;;;;;;;16.90;7.53;;;;;;;23.71;33.74;102667.56;5033512;28;20396;-63
2022/03/21 18:30:22;;;;;;;15.35;7.82;;;;;;;23.66;33.42;102676.28;5033364;28;20025;-63
2022/03/21 18:32:48;;;;;;;15.43;7.72;;;;;;;23.62;32.95;102665.84;5033450;28;20395;-63
2022/03/21 18:35:14;;;;;;;16.90;7.35;;;;;;;23.59;33.54;102671.69;5033412;28;20040;-63
2022/03/21 18:37:40;;;;;;;17.08;7.55;;;;;;;23.56;33.35;102675.56;5033433;28;20052;-63
2022/03/21 18:40:06;;;;;;;11.70;6.97;;;;;;;23.52;33.97;102679.69;5032227;28;20025;-65
2022/03/21 18:42:34;;;;;;;17.70;7.60;;;;;;;23.47;33.98;102676.63;5032864;28;20403;-64
2022/03/21 18:45:02;;;;;;;20.33;7.55;;;;;;;23.42;33.46;102673.50;5033148;28;20392;-64
2022/03/21 18:47:28;;;;;;;13.52;7.68;;;;;;;23.39;33.32;102679.34;5032192;28;20031;-64
2022/03/21 18:49:53;;;;;;;11.10;7.35;;;;;;;23.35;34.22;102680.66;5032908;28;20041;-63
2022/03/21 18:52:19;;;;;;;19.55;9.25;;;;;;;23.29;33.23;102689.50;5037210;28;20038;-64
2022/03/21 18:54:46;;;;;;;19.38;8.45;;;;;;;23.25;33.29;102682.69;5033133;28;20053;-65
2022/03/21 18:57:16;;;;;;;16.17;8.27;;;;;;;23.17;34.01;102688.13;5033189;28;20048;-65
2022/03/21 18:59:42;;;;;;;18.33;8.68;;;;;;;23.13;34.26;102684.88;5032194;28;20459;-66
2022/03/21 19:02:09;;;;;;;14.13;7.57;;;;;;;23.07;33.39;102687.41;5033106;28;20035;-65
2022/03/21 19:04:35;;;;;;;15.05;8.18;;;;;;;22.98;33.94;102682.91;5033188;28;20365;-66
2022/03/21 19:07:03;;;;;;;17.13;8.05;;;;;;;22.96;33.48;102690.44;5033093;28;20025;-66
2022/03/21 19:09:37;;;;;;;18.30;8.20;;;;;;;22.87;34.49;102694.13;5033004;28;20036;-65
2022/03/21 19:12:03;;;;;;;;;;;;;;;22.79;33.33;102691.38;5036244;28;20480;-65
2022/03/21 19:14:29;;;;;;;16.77;7.15;;;;;;;22.68;33.86;102691.66;5037191;28;19916;-65
2022/03/21 19:16:56;;;;;;;16.13;7.88;;;;;;;22.55;34.22;102690.22;5037230;28;20060;-65
2022/03/21 19:19:22;;;;;;;13.40;7.65;;;;;;;22.52;34.16;102693.25;5036973;28;20044;-65
2022/03/21 19:21:48;;;;;;;19.30;7.55;;;;;;;22.45;34.84;102705.84;5036785;28;20045;-65
2022/03/21 19:24:14;;;;;;;15.43;8.00;;;;;;;22.38;34.02;102702.06;5036748;28;20541;-65
2022/03/21 19:26:42;;;;;;;25.60;8.52;;;;;;;22.28;34.84;102701.28;5036913;28;20452;-65
2022/03/21 19:29:08;;;;;;;17.00;8.02;;;;;;;22.19;34.28;102702.25;5036920;28;20040;-65
2022/03/21 19:31:37;;;;;;;15.40;8.30;;;;;;;22.14;35.10;102704.59;5019076;28;20029;-66
2022/03/21 19:34:04;;;;;;;17.17;8.63;;;;;;;22.05;34.47;102702.81;5036832;28;20021;-65
2022/03/21 19:36:32;;;;;;;19.05;9.60;;;;;;;22.01;34.28;102701.41;5019258;28;20025;-66
2022/03/21 19:38:58;;;;;;;19.10;9.50;;;;;;;21.95;34.34;102713.81;5036721;28;20036;-64
2022/03/21 19:41:27;;;;;;;18.00;8.93;;;;;;;21.88;35.31;102711.88;5036496;28;20029;-65
2022/03/21 19:43:54;;;;;;;21.52;8.65;;;;;;;21.81;34.94;102718.94;5035381;28;20116;-64
2022/03/21 19:46:21;;;;;;;14.13;8.65;;;;;;;21.72;34.59;102722.63;5018917;28;20118;-65
2022/03/21 19:48:47;;;;;;;17.38;8.80;;;;;;;21.64;34.27;102719.78;5019056;28;20172;-65
2022/03/21 19:51:13;;;;;;;15.07;8.52;;;;;;;21.55;35.15;102726.19;5036449;28;20049;-65
2022/03/21 19:53:39;;;;;;;18.90;8.73;;;;;;;21.48;34.90;102725.94;5036826;28;20037;-64
2022/03/21 19:56:07;;;;;;;24.17;8.48;;;;;;;21.40;35.38;102724.00;5036945;28;20360;-64
2022/03/21 19:58:34;;;;;;;16.23;8.18;;;;;;;21.33;34.79;102728.31;5037358;28;20068;-64
2022/03/21 20:01:00;;;;;;;14.68;8.15;;;;;;;21.27;35.13;102733.56;5035767;28;20021;-65
2022/03/21 20:03:27;;;;;;;18.67;9.00;;;;;;;21.18;34.93;102729.88;5035657;28;20083;-65
2022/03/21 20:05:55;;;;;;;21.25;9.07;;;;;;;21.13;35.45;102728.59;5036932;28;20052;-65
2022/03/21 20:08:23;;;;;;;18.05;9.05;;;;;;;21.06;35.44;102724.72;5036499;28;20026;-64
2022/03/21 20:10:50;;;;;;;16.67;9.18;;;;;;;20.96;35.18;102722.06;5037125;28;20049;-65
2022/03/21 20:13:17;;;;;;;21.55;9.90;;;;;;;20.98;35.52;102730.94;5036846;28;20033;-65
2022/03/21 20:15:44;;;;;;;17.20;9.07;;;;;;;20.94;35.09;102731.41;5037099;28;20021;-65
2022/03/21 20:18:11;;;;;;;18.38;8.68;;;;;;;20.87;35.62;102733.84;5036105;28;20029;-65
2022/03/21 20:20:37;;;;;;;16.30;8.70;;;;;;;20.82;35.29;102738.91;5037387;28;20022;-65
2022/03/21 20:23:04;;;;;;;24.02;8.57;;;;;;;20.75;35.53;102738.63;5035948;28;20045;-65
2022/03/21 20:25:31;;;;;;;17.88;9.13;;;;;;;20.67;35.68;102740.38;5037002;28;20034;-65
2022/03/21 20:27:58;;;;;;;16.35;8.27;;;;;;;20.56;35.65;102735.97;5036671;28;20183;-65
2022/03/21 20:30:25;;;;;;;16.25;8.38;;;;;;;20.47;35.62;102738.69;5035909;28;20063;-65
2022/03/21 20:32:53;;;;;;;20.30;9.10;;;;;;;20.39;36.11;102746.75;5037154;28;20021;-64
2022/03/21 20:35:19;;;;;;;17.90;8.73;;;;;;;20.30;36.04;102735.72;5037450;28;20036;-65
2022/03/21 20:37:46;;;;;;;23.48;8.45;;;;;;;20.21;35.65;102741.16;5036407;28;20514;-64
2022/03/21 20:40:13;;;;;;;22.73;9.52;;;;;;;20.14;35.89;102743.59;5036389;28;20018;-65
2022/03/21 20:42:40;;;;;;;18.27;9.55;;;;;;;20.09;35.79;102747.75;5037823;28;20403;-65
2022/03/21 20:45:06;;;;;;;18.05;8.98;;;;;;;20.02;35.84;102743.88;5036199;28;20395;-65
2022/03/21 20:47:32;;;;;;;18.02;9.38;;;;;;;19.95;35.77;102743.63;5037494;28;20021;-64
2022/03/21 20:50:00;;;;;;;19.77;9.82;;;;;;;19.89;35.94;102743.31;5036235;28;20426;-65
2022/03/21 20:52:28;;;;;;;17.33;8.43;;;;;;;19.83;36.33;102749.31;5036263;28;20032;-65
2022/03/21 20:54:58;;;;;;;17.30;9.90;;;;;;;19.77;36.11;102745.31;5037513;28;20040;-64
2022/03/21 20:57:24;;;;;;;28.52;9.85;;;;;;;19.71;36.31;102749.47;5036722;28;20041;-64
2022/03/21 20:59:50;;;;;;;22.52;10.88;;;;;;;19.65;36.26;102749.19;5035992;28;20032;-65
2022/03/21 21:02:16;;;;;;;22.92;10.55;;;;;;;19.58;35.99;102745.28;5036829;28;20025;-64
2022/03/21 21:04:43;;;;;;;20.70;9.32;;;;;;;19.56;36.60;102747.31;5036798;28;20029;-65
2022/03/21 21:07:08;;;;;;;16.38;9.02;;;;;;;19.46;36.04;102743.69;5035455;28;20075;-64
2022/03/21 21:09:34;;;;;;;21.15;9.25;;;;;;;19.48;36.80;102749.88;5036364;28;20033;-65
2022/03/21 21:12:00;;;;;;;22.80;9.50;;;;;;;19.40;36.36;102753.25;5036296;28;20033;-65
2022/03/21 21:14:27;;;;;;;30.60;10.90;;;;;;;19.37;36.11;102753.53;5036241;28;20029;-64
2022/03/21 21:16:53;;;;;;;15.65;8.68;;;;;;;19.27;36.77;102747.19;5034967;28;20052;-64
2022/03/21 21:19:20;;;;;;;16.85;8.02;;;;;;;19.28;36.64;102753.50;5034827;28;20433;-65
2022/03/21 21:21:46;;;;;;;23.13;10.23;;;;;;;19.23;37.03;102761.22;5036061;28;20100;-65
2022/03/21 21:24:14;;;;;;;20.35;9.63;;;;;;;19.17;36.91;102763.47;5034952;28;20036;-65
2022/03/21 21:26:40;;;;;;;20.85;9.80;;;;;;;19.13;36.84;102766.59;5034601;28;20075;-64
2022/03/21 21:29:05;;;;;;;23.50;11.00;;;;;;;19.10;37.02;102766.88;5035807;28;20502;-65
2022/03/21 21:31:33;;;;;;;30.52;9.13;;;;;;;19.03;37.16;102760.28;5035841;28;20036;-64
2022/03/21 21:34:00;;;;;;;17.17;8.65;;;;;;;18.99;36.95;102758.81;5034782;28;20032;-65
2022/03/21 21:36:26;;;;;;;19.48;8.35;;;;;;;18.96;37.39;102762.66;5034769;28;20029;-65
2022/03/21 21:38:52;;;;;;;23.73;8.98;;;;;;;18.89;37.36;102755.22;5034690;28;20092;-65
2022/03/21 21:41:17;;;;;;;19.58;8.90;;;;;;;18.84;37.20;102760.19;5035738;28;20051;-65
2022/03/21 21:43:44;;;;;;;18.85;9.75;;;;;;;18.78;37.00;102752.59;5034405;28;20108;-65
2022/03/21 21:46:09;;;;;;;17.55;9.88;;;;;;;18.72;37.05;102764.84;5036049;28;20026;-65
2022/03/21 21:48:36;;;;;;;15.70;7.97;;;;;;;18.64;36.81;102763.78;5035254;28;20104;-64
2022/03/21 21:51:02;;;;;;;17.55;9.43;;;;;;;18.57;37.35;102763.47;5035235;28;20137;-64
2022/03/21 21:53:27;;;;;;;19.83;8.25;;;;;;;18.49;37.68;102758.72;5033956;28;20061;-65
2022/03/21 21:55:53;;;;;;;21.10;9.25;;;;;;;18.42;36.96;102759.34;5017571;28;20041;-64
2022/03/21 21:58:19;;;;;;;14.88;8.38;;;;;;;18.35;37.11;102755.44;5035237;28;20032;-64
2022/03/21 22:00:44;;;;;;;18.02;8.57;;;;;;;18.28;37.93;102771.41;5033884;28;20055;-64
2022/03/21 22:03:10;;;;;;;23.63;9.55;;;;;;;18.19;37.32;102764.03;5033650;28;20021;-65
2022/03/21 22:05:36;;;;;;;20.15;9.43;;;;;;;18.21;38.15;102767.47;5016983;28;20116;-65
2022/03/21 22:08:03;;;;;;;15.75;9.57;;;;;;;18.17;37.81;102767.88;5033729;28;20025;-64
2022/03/21 22:10:29;;;;;;;16.48;8.13;;;;;;;18.09;37.08;102765.78;5035520;28;20107;-64
2022/03/21 22:12:56;;;;;;;23.98;10.02;;;;;;;18.08;37.70;102772.22;5034935;28;20065;-65
2022/03/21 22:15:23;;;;;;;21.58;10.27;;;;;;;18.02;38.24;102773.63;5034223;28;20025;-65
2022/03/21 22:17:49;;;;;;;22.63;9.18;;;;;;;17.96;37.97;102770.53;5034813;28;20037;-65
2022/03/21 22:20:15;;;;;;;13.75;8.52;;;;;;;17.93;37.92;102778.94;5034496;28;20028;-64
2022/03/21 22:22:40;;;;;;;18.67;8.82;;;;;;;17.81;38.04;102764.56;5033420;28;20025;-65
2022/03/21 22:25:06;;;;;;;18.58;9.70;;;;;;;17.84;37.99;102774.28;5034834;28;20060;-65
2022/03/21 22:27:32;;;;;;;16.77;8.02;;;;;;;17.79;37.68;102777.38;5034543;28;20485;-65
2022/03/21 22:29:57;;;;;;;22.38;9.07;;;;;;;17.74;37.71;102790.47;5034274;28;20163;-65
2022/03/21 22:32:25;;;;;;;17.13;8.15;;;;;;;17.63;38.13;102776.09;5033266;28;20472;-64
2022/03/21 22:34:50;;;;;;;15.88;8.80;;;;;;;17.54;38.10;102783.13;5017293;28;20032;-64